Le Grand, California
Current Conditions -  °F | °C
As of 10:53 AM on Friday 31 Oct 2014 (Local Time) from KMCE Reporting Station
Clear Clear  
Wind Chill: 21°   Ceiling: Unl
Heat Index: 21°   Visibility: 8mi
Dew Point: 11°   Wind: 0mph
Humidity: 54%   Direction: NA
Pressure: 29.88"   Gusts: NA
Location:  37.23°N, 120.25°W
Report Text: KMCE 311753Z AUTO 00000KT 8SM CLR 21/11 A2988 RMK AO2 SLP116 T02060111 10206 20128 50005
Loading
Personal Weather Stations






























Interactive Weather Map
Tropical Storm Tracking
New forecast layout! Learn more

10-Day Weather Forecast

Advertisements
Track Severe Weather on mobile